Time,TemperatureF,DewpointF,PressureIn,WindDirection,WindDirectionDegrees,WindSpeedMPH,WindSpeedGustMPH,Humidity,HourlyPrecipIn,Conditions,Clouds,dailyrainin,SoftwareType,DateUTC
2013-06-03 00:03:00,80.8,-15.3,17.72,ESE,121,0.0,0.0,2,0.00,,---,0.00,VWS V13.01,2013-06-03 07:03:00,
2013-06-03 00:08:00,80.4,-15.5,17.72,ESE,121,0.0,0.0,2,0.00,,---,0.00,VWS V13.01,2013-06-03 07:08:00,
2013-06-03 00:13:00,80.1,-15.8,17.72,ESE,121,0.0,0.0,2,0.00,,---,0.00,VWS V13.01,2013-06-03 07:13:00,
2013-06-03 00:18:00,79.9,-15.9,17.72,ESE,121,0.0,0.0,2,0.00,,---,0.00,VWS V13.01,2013-06-03 07:18:00,
2013-06-03 00:23:00,79.7,-16.0,17.72,SE,127,3.6,4.0,2,0.00,,---,0.00,VWS V13.01,2013-06-03 07:23:00,
2013-06-03 00:28:00,80.1,-15.8,17.72,SSE,165,3.6,9.6,2,0.00,,---,0.00,VWS V13.01,2013-06-03 07:28:00,
2013-06-03 00:34:00,80.2,-15.6,17.72,SSE,165,0.0,0.0,2,0.00,,---,0.00,VWS V13.01,2013-06-03 07:34:00,
2013-06-03 00:39:00,80.1,-15.8,17.72,SSE,165,0.0,0.0,2,0.00,,---,0.00,VWS V13.01,2013-06-03 07:39:00,
2013-06-03 00:44:00,79.9,-15.9,17.72,SSE,165,0.0,0.0,2,0.00,,---,0.00,VWS V13.01,2013-06-03 07:44:00,
2013-06-03 00:49:00,79.7,-16.0,17.72,SSE,165,0.0,0.0,2,0.00,,---,0.00,VWS V13.01,2013-06-03 07:49:00,
2013-06-03 00:54:00,79.3,-16.2,17.72,SSE,165,0.0,0.0,2,0.00,,---,0.00,VWS V13.01,2013-06-03 07:54:00,
2013-06-03 01:00:00,79.0,-16.5,17.72,SSE,165,0.0,0.0,2,0.00,,---,0.00,VWS V13.01,2013-06-03 08:00:00,
2013-06-03 01:05:00,78.6,-8.6,17.72,SSE,165,0.0,0.0,3,0.00,,---,0.00,VWS V13.01,2013-06-03 08:05:00,
2013-06-03 01:10:00,78.4,-8.7,17.72,SSE,156,0.0,0.0,3,0.00,,---,0.00,VWS V13.01,2013-06-03 08:10:00,
2013-06-03 01:16:00,78.6,-16.7,17.72,East,100,5.8,5.8,2,0.00,,---,0.00,VWS V13.01,2013-06-03 08:16:00,
2013-06-03 01:21:00,79.0,-16.5,17.72,ESE,103,0.0,4.9,2,0.00,,---,0.00,VWS V13.01,2013-06-03 08:21:00,
2013-06-03 01:27:00,78.8,-16.6,17.72,ESE,102,3.6,4.0,2,0.00,,---,0.00,VWS V13.01,2013-06-03 08:27:00,
2013-06-03 01:32:00,78.6,-16.7,17.72,East,98,0.0,0.0,2,0.00,,---,0.00,VWS V13.01,2013-06-03 08:32:00,
2013-06-03 01:37:00,78.6,-16.7,17.72,ESE,102,0.0,4.5,2,0.00,,---,0.00,VWS V13.01,2013-06-03 08:37:00,
2013-06-03 01:42:00,78.1,-17.0,17.72,East,99,0.0,0.0,2,0.00,,---,0.00,VWS V13.01,2013-06-03 08:42:00,
2013-06-03 01:47:00,77.5,-17.4,17.72,East,99,0.0,0.0,2,0.00,,---,0.00,VWS V13.01,2013-06-03 08:47:00,
2013-06-03 01:53:00,77.0,-17.7,17.72,East,99,0.0,0.0,2,0.00,,---,0.00,VWS V13.01,2013-06-03 08:53:00,
2013-06-03 01:58:00,76.6,-9.9,17.72,East,99,0.0,0.0,3,0.00,,---,0.00,VWS V13.01,2013-06-03 08:58:00,
2013-06-03 02:03:00,76.3,-10.2,17.72,East,99,0.0,0.0,3,0.00,,---,0.00,VWS V13.01,2013-06-03 09:03:00,
2013-06-03 02:09:00,76.6,-9.9,17.72,East,99,0.0,0.0,3,0.00,,---,0.00,VWS V13.01,2013-06-03 09:09:00,
2013-06-03 02:14:00,76.5,-10.0,17.72,East,99,0.0,0.0,3,0.00,,---,0.00,VWS V13.01,2013-06-03 09:14:00,
2013-06-03 02:19:00,75.9,-10.4,17.72,East,99,0.0,0.0,3,0.00,,---,0.00,VWS V13.01,2013-06-03 09:19:00,
2013-06-03 02:24:00,75.4,-0.2,17.72,East,99,0.0,0.0,5,0.00,,---,0.00,VWS V13.01,2013-06-03 09:24:00,
2013-06-03 02:30:00,75.0,3.4,17.72,East,99,0.0,0.0,6,0.00,,---,0.00,VWS V13.01,2013-06-03 09:30:00,
2013-06-03 02:35:00,74.7,9.5,17.72,East,99,0.0,0.0,8,0.00,,---,0.00,VWS V13.01,2013-06-03 09:35:00,
2013-06-03 02:40:00,74.3,9.2,17.72,East,99,0.0,0.0,8,0.00,,---,0.00,VWS V13.01,2013-06-03 09:40:00,
2013-06-03 02:45:00,74.1,16.3,17.72,East,99,0.0,0.0,11,0.00,,---,0.00,VWS V13.01,2013-06-03 09:45:00,
2013-06-03 02:50:00,73.8,19.9,17.72,ESE,105,0.0,0.0,13,0.00,,---,0.00,VWS V13.01,2013-06-03 09:50:00,
2013-06-03 02:56:00,73.6,15.9,17.72,ESE,102,0.0,0.0,11,0.00,,---,0.00,VWS V13.01,2013-06-03 09:56:00,
2013-06-03 03:01:00,73.4,19.6,17.72,ESE,102,0.0,0.0,13,0.00,,---,0.00,VWS V13.01,2013-06-03 10:01:00,
2013-06-03 03:06:00,73.2,21.2,17.72,ESE,102,0.0,0.0,14,0.00,,---,0.00,VWS V13.01,2013-06-03 10:06:00,
2013-06-03 03:11:00,72.9,20.9,17.72,ESE,102,0.0,0.0,14,0.00,,---,0.00,VWS V13.01,2013-06-03 10:11:00,
2013-06-03 03:16:00,72.7,23.9,17.72,ESE,102,0.0,0.0,16,0.00,,---,0.00,VWS V13.01,2013-06-03 10:16:00,
2013-06-03 03:22:00,72.5,23.8,17.72,ESE,102,0.0,0.0,16,0.00,,---,0.00,VWS V13.01,2013-06-03 10:22:00,
2013-06-03 03:27:00,72.5,27.9,17.72,East,101,0.0,0.0,19,0.00,,---,0.00,VWS V13.01,2013-06-03 10:27:00,
2013-06-03 03:33:00,72.5,30.4,17.72,East,101,0.0,0.0,21,0.00,,---,0.00,VWS V13.01,2013-06-03 10:33:00,
2013-06-03 03:38:00,72.5,30.4,17.72,East,100,0.0,0.0,21,0.00,,---,0.00,VWS V13.01,2013-06-03 10:38:00,
2013-06-03 03:43:00,72.5,31.5,17.72,East,100,0.0,0.0,22,0.00,,---,0.00,VWS V13.01,2013-06-03 10:43:00,
2013-06-03 03:48:00,72.5,30.4,17.72,East,101,0.0,0.0,21,0.00,,---,0.00,VWS V13.01,2013-06-03 10:48:00,
2013-06-03 03:54:00,72.7,30.5,17.72,East,101,0.0,0.0,21,0.00,,---,0.00,VWS V13.01,2013-06-03 10:54:00,
2013-06-03 03:59:00,72.5,30.4,17.72,East,101,0.0,0.0,21,0.00,,---,0.00,VWS V13.01,2013-06-03 10:59:00,
2013-06-03 04:04:00,72.3,30.2,17.72,East,101,0.0,0.0,21,0.00,,---,0.00,VWS V13.01,2013-06-03 11:04:00,
2013-06-03 04:09:00,72.3,30.2,17.72,East,101,0.0,0.0,21,0.00,,---,0.00,VWS V13.01,2013-06-03 11:09:00,
2013-06-03 04:14:00,72.5,30.4,17.72,South,183,5.8,5.8,21,0.00,,---,0.00,VWS V13.01,2013-06-03 11:14:00,
2013-06-03 04:19:00,72.3,30.2,17.72,SSW,192,5.4,7.6,21,0.00,,---,0.00,VWS V13.01,2013-06-03 11:19:00,
2013-06-03 04:25:00,72.5,30.4,17.72,SSE,149,3.6,4.9,21,0.00,,---,0.00,VWS V13.01,2013-06-03 11:25:00,
2013-06-03 04:30:00,72.5,30.4,17.72,SSE,161,0.0,3.6,21,0.00,,---,0.00,VWS V13.01,2013-06-03 11:30:00,
2013-06-03 04:35:00,72.7,28.1,17.72,SE,139,3.6,4.9,19,0.00,,---,0.00,VWS V13.01,2013-06-03 11:35:00,
2013-06-03 04:40:00,72.9,28.2,17.72,SE,143,2.2,4.9,19,0.00,,---,0.00,VWS V13.01,2013-06-03 11:40:00,
2013-06-03 04:45:00,73.4,19.6,17.72,East,84,3.6,7.2,13,0.00,,---,0.00,VWS V13.01,2013-06-03 11:45:00,
2013-06-03 04:51:00,73.6,15.9,17.72,ESE,109,2.7,4.9,11,0.00,,---,0.00,VWS V13.01,2013-06-03 11:51:00,
2013-06-03 04:56:00,73.8,16.0,17.72,ESE,116,3.6,5.4,11,0.00,,---,0.00,VWS V13.01,2013-06-03 11:56:00,
2013-06-03 05:01:00,74.1,9.1,17.72,ESE,119,4.0,5.8,8,0.00,,---,0.00,VWS V13.01,2013-06-03 12:01:00,
2013-06-03 05:07:00,74.3,2.9,17.72,SE,136,2.7,4.0,6,0.00,,---,0.00,VWS V13.01,2013-06-03 12:07:00,
2013-06-03 05:12:00,74.1,2.8,17.72,SSE,149,0.0,0.0,6,0.00,,---,0.00,VWS V13.01,2013-06-03 12:12:00,
2013-06-03 05:17:00,73.9,2.7,17.72,SE,133,0.0,2.7,6,0.00,,---,0.00,VWS V13.01,2013-06-03 12:17:00,
2013-06-03 05:22:00,73.6,2.4,17.72,ESE,106,0.0,3.6,6,0.00,,---,0.00,VWS V13.01,2013-06-03 12:22:00,
2013-06-03 05:27:00,73.2,2.1,17.72,ESE,106,0.0,0.0,6,0.00,,---,0.00,VWS V13.01,2013-06-03 12:27:00,
2013-06-03 05:32:00,72.9,10.8,17.72,ESE,106,0.0,0.0,9,0.00,,---,0.00,VWS V13.01,2013-06-03 12:32:00,
2013-06-03 05:37:00,72.7,10.6,17.72,ESE,106,0.0,0.0,9,0.00,,---,0.00,VWS V13.01,2013-06-03 12:37:00,
2013-06-03 05:42:00,72.3,14.9,17.72,ESE,106,0.0,0.0,11,0.00,,---,0.00,VWS V13.01,2013-06-03 12:42:00,
2013-06-03 05:48:00,72.5,15.0,17.72,ESE,107,0.0,0.0,11,0.00,,---,0.00,VWS V13.01,2013-06-03 12:48:00,
2013-06-03 05:53:00,72.5,23.8,17.72,ESE,106,0.0,0.0,16,0.00,,---,0.00,VWS V13.01,2013-06-03 12:53:00,
2013-06-03 05:59:00,72.7,23.9,17.72,East,101,2.7,2.7,16,0.00,,---,0.00,VWS V13.01,2013-06-03 12:59:00,
2013-06-03 06:04:00,72.7,20.8,17.72,NE,47,2.7,4.0,14,0.00,,---,0.00,VWS V13.01,2013-06-03 13:04:00,
2013-06-03 06:09:00,72.9,20.9,17.72,East,80,0.0,3.6,14,0.00,,---,0.00,VWS V13.01,2013-06-03 13:09:00,
2013-06-03 06:15:00,73.2,21.2,17.72,SSW,198,0.0,3.6,14,0.00,,---,0.00,VWS V13.01,2013-06-03 13:15:00,
2013-06-03 06:20:00,73.8,16.0,17.72,NE,39,0.0,0.0,11,0.00,,---,0.00,VWS V13.01,2013-06-03 13:20:00,
2013-06-03 06:25:00,74.5,20.5,17.72,NE,39,0.0,0.0,13,0.00,,---,0.00,VWS V13.01,2013-06-03 13:25:00,
2013-06-03 06:30:00,75.0,17.0,17.72,NE,43,2.7,3.6,11,0.00,,---,0.00,VWS V13.01,2013-06-03 13:30:00,
2013-06-03 06:36:00,75.4,10.0,17.72,NNE,29,0.0,0.0,8,0.00,,---,0.00,VWS V13.01,2013-06-03 13:36:00,
2013-06-03 06:41:00,75.9,10.4,17.72,ENE,62,3.1,3.1,8,0.00,,---,0.00,VWS V13.01,2013-06-03 13:41:00,
2013-06-03 06:46:00,76.6,11.0,17.72,ENE,62,0.0,4.0,8,0.00,,---,0.00,VWS V13.01,2013-06-03 13:46:00,
2013-06-03 06:52:00,77.2,11.4,17.72,ENE,62,0.0,0.0,8,0.00,,---,0.00,VWS V13.01,2013-06-03 13:52:00,
2013-06-03 06:57:00,77.4,1.2,17.72,WSW,253,4.9,6.3,5,0.00,,---,0.00,VWS V13.01,2013-06-03 13:57:00,
2013-06-03 07:02:00,77.7,11.8,17.72,WNW,284,0.0,0.0,8,0.00,,---,0.00,VWS V13.01,2013-06-03 14:02:00,
2013-06-03 07:07:00,78.3,17.3,17.72,WNW,288,0.0,0.0,10,0.00,,---,0.00,VWS V13.01,2013-06-03 14:07:00,
2013-06-03 07:12:00,78.8,9.6,17.72,WNW,296,0.0,0.0,7,0.00,,---,0.00,VWS V13.01,2013-06-03 14:12:00,
2013-06-03 07:18:00,79.7,2.8,17.72,NNW,339,0.0,0.0,5,0.00,,---,0.00,VWS V13.01,2013-06-03 14:18:00,
2013-06-03 07:23:00,80.2,3.2,17.72,NNW,339,0.0,0.0,5,0.00,,---,0.00,VWS V13.01,2013-06-03 14:23:00,
2013-06-03 07:28:00,80.6,10.9,17.72,NW,324,0.0,0.0,7,0.00,,---,0.00,VWS V13.01,2013-06-03 14:28:00,
2013-06-03 07:34:00,81.3,-14.9,17.72,WNW,299,0.0,4.0,2,0.00,,---,0.00,VWS V13.01,2013-06-03 14:34:00,
2013-06-03 07:39:00,81.7,-0.5,17.72,WNW,299,0.0,0.0,4,0.00,,---,0.00,VWS V13.01,2013-06-03 14:39:00,
2013-06-03 07:44:00,82.4,-14.2,17.72,WNW,299,0.0,0.0,2,0.00,,---,0.00,VWS V13.01,2013-06-03 14:44:00,
2013-06-03 07:49:00,83.1,-13.8,17.72,WNW,299,0.0,0.0,2,0.00,,---,0.00,VWS V13.01,2013-06-03 14:49:00,
2013-06-03 07:55:00,84.0,-13.2,17.72,NNW,338,0.0,0.0,2,0.00,,---,0.00,VWS V13.01,2013-06-03 14:55:00,
2013-06-03 08:00:00,84.6,-12.9,17.72,NNW,332,0.0,0.0,2,0.00,,---,0.00,VWS V13.01,2013-06-03 15:00:00,
2013-06-03 08:05:00,85.1,-12.5,17.72,NNW,345,0.0,0.0,2,0.00,,---,0.00,VWS V13.01,2013-06-03 15:05:00,
2013-06-03 08:10:00,85.5,-12.3,17.72,NNW,342,0.0,0.0,2,0.00,,---,0.00,VWS V13.01,2013-06-03 15:10:00,
2013-06-03 08:15:00,86.0,-11.9,17.72,NNW,343,0.0,0.0,2,0.00,,---,0.00,VWS V13.01,2013-06-03 15:15:00,
2013-06-03 08:20:00,86.4,-11.7,17.72,NNW,344,0.0,0.0,2,0.00,,---,0.00,VWS V13.01,2013-06-03 15:20:00,
2013-06-03 08:26:00,87.1,-11.3,17.72,North,360,0.0,0.0,2,0.00,,---,0.00,VWS V13.01,2013-06-03 15:26:00,
2013-06-03 08:31:00,87.6,-10.9,17.72,North,357,0.0,0.0,2,0.00,,---,0.00,VWS V13.01,2013-06-03 15:31:00,
2013-06-03 08:36:00,88.5,-10.3,17.72,ENE,60,3.1,6.3,2,0.00,,---,0.00,VWS V13.01,2013-06-03 15:36:00,
2013-06-03 08:41:00,89.4,-9.8,17.72,NNE,28,3.6,6.3,2,0.00,,---,0.00,VWS V13.01,2013-06-03 15:41:00,
2013-06-03 08:46:00,90.0,-9.4,17.72,NNW,341,3.1,4.0,2,0.00,,---,0.00,VWS V13.01,2013-06-03 15:46:00,
2013-06-03 08:52:00,90.7,-9.0,17.72,South,189,2.2,4.0,2,0.00,,---,0.00,VWS V13.01,2013-06-03 15:52:00,
2013-06-03 08:57:00,90.7,-9.0,17.72,South,189,0.0,0.0,2,0.00,,---,0.00,VWS V13.01,2013-06-03 15:57:00,
2013-06-03 09:02:00,91.2,-8.6,17.72,South,189,0.0,0.0,2,0.00,,---,0.00,VWS V13.01,2013-06-03 16:02:00,
2013-06-03 09:07:00,91.0,-8.7,17.72,SW,228,0.0,3.6,2,0.00,,---,0.00,VWS V13.01,2013-06-03 16:07:00,
2013-06-03 09:12:00,90.9,-8.9,17.72,NW,313,0.0,3.1,2,0.00,,---,0.00,VWS V13.01,2013-06-03 16:12:00,
2013-06-03 09:18:00,91.8,-8.3,17.72,SSW,213,3.1,5.4,2,0.00,,---,0.00,VWS V13.01,2013-06-03 16:18:00,
2013-06-03 09:23:00,91.9,-8.2,17.72,SW,223,5.4,5.4,2,0.00,,---,0.00,VWS V13.01,2013-06-03 16:23:00,
2013-06-03 09:28:00,92.7,-7.7,17.72,East,90,0.0,4.0,2,0.00,,---,0.00,VWS V13.01,2013-06-03 16:28:00,
2013-06-03 09:34:00,93.2,-7.4,17.72,SSW,196,5.8,8.1,2,0.00,,---,0.00,VWS V13.01,2013-06-03 16:34:00,
2013-06-03 09:39:00,93.6,-7.1,17.72,WSW,246,7.6,8.7,2,0.00,,---,0.00,VWS V13.01,2013-06-03 16:39:00,
2013-06-03 09:44:00,94.1,-6.8,17.72,South,183,5.8,7.6,2,0.00,,---,0.00,VWS V13.01,2013-06-03 16:44:00,
2013-06-03 09:49:00,94.5,-6.6,17.72,SSE,161,8.1,8.1,2,0.00,,---,0.00,VWS V13.01,2013-06-03 16:49:00,
2013-06-03 09:54:00,95.2,-6.1,17.72,SW,232,4.9,8.1,2,0.00,,---,0.00,VWS V13.01,2013-06-03 16:54:00,
2013-06-03 09:59:00,96.1,-5.5,17.72,South,189,6.3,11.0,2,0.00,,---,0.00,VWS V13.01,2013-06-03 16:59:00,
2013-06-03 10:05:00,95.9,-5.7,17.72,SW,236,0.0,3.1,2,0.00,,---,0.00,VWS V13.01,2013-06-03 17:05:00,
2013-06-03 10:10:00,96.6,-5.2,17.72,SSW,197,8.3,10.1,2,0.00,,---,0.00,VWS V13.01,2013-06-03 17:10:00,
2013-06-03 10:15:00,97.5,-4.6,17.72,SSW,204,0.0,10.1,2,0.00,,---,0.00,VWS V13.01,2013-06-03 17:15:00,
2013-06-03 10:21:00,97.3,-4.7,17.72,South,180,8.1,8.1,2,0.00,,---,0.00,VWS V13.01,2013-06-03 17:21:00,
2013-06-03 10:26:00,97.3,-4.7,17.72,WSW,255,0.0,6.3,2,0.00,,---,0.00,VWS V13.01,2013-06-03 17:26:00,
2013-06-03 10:31:00,97.3,-4.7,17.72,SSW,210,4.9,7.6,2,0.00,,---,0.00,VWS V13.01,2013-06-03 17:31:00,
2013-06-03 10:36:00,97.3,-4.7,17.72,SSW,209,3.6,3.6,2,0.00,,---,0.00,VWS V13.01,2013-06-03 17:36:00,
2013-06-03 10:41:00,98.4,-4.1,17.72,South,173,5.8,8.7,2,0.00,,---,0.00,VWS V13.01,2013-06-03 17:41:00,
2013-06-03 10:46:00,98.6,-3.9,17.72,SSW,213,2.7,6.3,2,0.00,,---,0.00,VWS V13.01,2013-06-03 17:46:00,
2013-06-03 10:52:00,98.4,-4.1,17.72,South,190,5.4,10.1,2,0.00,,---,0.00,VWS V13.01,2013-06-03 17:52:00,
2013-06-03 10:57:00,99.0,-3.7,17.72,SSW,198,7.6,8.1,2,0.00,,---,0.00,VWS V13.01,2013-06-03 17:57:00,
2013-06-03 11:02:00,99.9,-3.2,17.72,South,173,5.4,8.7,2,0.00,,---,0.00,VWS V13.01,2013-06-03 18:02:00,
2013-06-03 11:07:00,100.0,-3.0,17.72,SW,230,3.1,10.1,2,0.00,,---,0.00,VWS V13.01,2013-06-03 18:07:00,
2013-06-03 11:12:00,100.4,-2.8,17.72,SSE,168,5.4,10.1,2,0.00,,---,0.00,VWS V13.01,2013-06-03 18:12:00,
2013-06-03 11:17:00,100.8,-2.6,17.72,SSW,196,6.3,10.5,2,0.00,,---,0.00,VWS V13.01,2013-06-03 18:17:00,
2013-06-03 11:23:00,101.1,-2.3,17.72,SE,124,3.6,11.0,2,0.00,,---,0.00,VWS V13.01,2013-06-03 18:23:00,
2013-06-03 11:28:00,101.3,-2.2,17.72,West,269,5.4,8.7,2,0.00,,---,0.00,VWS V13.01,2013-06-03 18:28:00,
2013-06-03 11:33:00,100.9,-2.5,17.72,SSW,197,4.9,8.7,2,0.00,,---,0.00,VWS V13.01,2013-06-03 18:33:00,
2013-06-03 11:39:00,100.9,-2.5,17.72,South,185,3.1,8.3,2,0.00,,---,0.00,VWS V13.01,2013-06-03 18:39:00,
2013-06-03 11:44:00,102.0,-1.8,17.72,South,170,10.5,10.5,2,0.00,,---,0.00,VWS V13.01,2013-06-03 18:44:00,
2013-06-03 11:49:00,102.2,-1.7,17.72,WSW,241,10.5,10.5,2,0.00,,---,0.00,VWS V13.01,2013-06-03 18:49:00,
2013-06-03 11:54:00,101.3,-2.2,17.72,SW,225,5.4,9.6,2,0.00,,---,0.00,VWS V13.01,2013-06-03 18:54:00,
2013-06-03 11:59:00,101.7,-2.0,17.72,South,190,8.1,8.7,2,0.00,,---,0.00,VWS V13.01,2013-06-03 18:59:00,
2013-06-03 12:04:00,101.5,-2.1,17.72,West,272,8.3,8.3,2,0.00,,---,0.00,VWS V13.01,2013-06-03 19:04:00,
2013-06-03 12:09:00,100.8,-2.6,17.72,WNW,287,5.4,12.8,2,0.00,,---,0.00,VWS V13.01,2013-06-03 19:09:00,
2013-06-03 12:14:00,101.3,-2.2,17.72,SSW,207,8.1,11.0,2,0.00,,---,0.00,VWS V13.01,2013-06-03 19:14:00,
2013-06-03 12:20:00,102.4,-1.6,17.72,SSE,168,9.6,10.5,2,0.00,,---,0.00,VWS V13.01,2013-06-03 19:20:00,
2013-06-03 12:25:00,102.0,-1.8,17.72,SSW,211,8.3,11.0,2,0.00,,---,0.00,VWS V13.01,2013-06-03 19:25:00,
2013-06-03 12:30:00,102.4,-1.6,17.72,South,182,7.6,9.6,2,0.00,,---,0.00,VWS V13.01,2013-06-03 19:30:00,
2013-06-03 12:36:00,103.3,-1.0,17.72,South,172,9.6,10.1,2,0.00,,---,0.00,VWS V13.01,2013-06-03 19:36:00,
2013-06-03 12:41:00,103.8,-0.6,17.72,WSW,248,12.3,12.8,2,0.00,,---,0.00,VWS V13.01,2013-06-03 19:41:00,
2013-06-03 12:46:00,103.6,-0.8,17.72,South,170,8.3,11.0,2,0.00,,---,0.00,VWS V13.01,2013-06-03 19:46:00,
2013-06-03 12:52:00,103.5,-0.9,17.72,West,265,4.0,10.1,2,0.00,,---,0.00,VWS V13.01,2013-06-03 19:52:00,
2013-06-03 12:57:00,103.5,-0.9,17.72,SSW,208,8.1,12.3,2,0.00,,---,0.00,VWS V13.01,2013-06-03 19:57:00,
2013-06-03 13:02:00,103.6,-0.8,17.72,West,273,8.7,8.7,2,0.00,,---,0.00,VWS V13.01,2013-06-03 20:02:00,
2013-06-03 13:08:00,103.3,-1.0,17.72,SSW,193,8.3,12.3,2,0.00,,---,0.00,VWS V13.01,2013-06-03 20:08:00,
2013-06-03 13:13:00,103.6,-0.8,17.72,SSW,195,3.6,7.6,2,0.00,,---,0.00,VWS V13.01,2013-06-03 20:13:00,
2013-06-03 13:18:00,104.2,-0.4,17.72,South,180,10.5,10.5,2,0.00,,---,0.00,VWS V13.01,2013-06-03 20:18:00,
2013-06-03 13:24:00,104.2,-0.4,17.72,SSW,205,6.3,10.1,2,0.00,,---,0.00,VWS V13.01,2013-06-03 20:24:00,
2013-06-03 13:29:00,104.5,-0.2,17.72,WNW,287,7.6,9.6,2,0.00,,---,0.00,VWS V13.01,2013-06-03 20:29:00,
2013-06-03 13:35:00,103.8,-0.6,17.72,SSW,194,4.0,12.3,2,0.00,,---,0.00,VWS V13.01,2013-06-03 20:35:00,
2013-06-03 13:40:00,103.3,-1.0,17.72,SW,215,5.4,8.3,2,0.00,,---,0.00,VWS V13.01,2013-06-03 20:40:00,
2013-06-03 13:45:00,104.2,-0.4,17.72,West,264,8.1,10.1,2,0.00,,---,0.00,VWS V13.01,2013-06-03 20:45:00,
2013-06-03 13:50:00,103.5,-0.9,17.72,West,279,5.4,10.1,2,0.00,,---,0.00,VWS V13.01,2013-06-03 20:50:00,
2013-06-03 13:55:00,103.1,-1.1,17.72,SW,222,5.4,6.3,2,0.00,,---,0.00,VWS V13.01,2013-06-03 20:55:00,
2013-06-03 14:00:00,104.2,-0.4,17.72,SSW,197,5.8,10.1,2,0.00,,---,0.00,VWS V13.01,2013-06-03 21:00:00,
2013-06-03 14:06:00,105.1,0.1,17.72,SW,226,6.3,10.1,2,0.00,,---,0.00,VWS V13.01,2013-06-03 21:06:00,
2013-06-03 14:11:00,104.7,-0.1,17.72,SW,223,4.9,8.1,2,0.00,,---,0.00,VWS V13.01,2013-06-03 21:11:00,
2013-06-03 14:17:00,104.5,-0.2,17.72,SSE,166,6.3,8.1,2,0.00,,---,0.00,VWS V13.01,2013-06-03 21:17:00,
2013-06-03 14:23:00,104.7,-0.1,17.72,SSE,151,8.1,13.6,2,0.00,,---,0.00,VWS V13.01,2013-06-03 21:23:00,
2013-06-03 14:28:00,105.1,0.1,17.72,South,190,5.4,10.5,2,0.00,,---,0.00,VWS V13.01,2013-06-03 21:28:00,
2013-06-03 14:33:00,105.6,0.5,17.72,South,188,5.8,11.9,2,0.00,,---,0.00,VWS V13.01,2013-06-03 21:33:00,
2013-06-03 14:39:00,105.4,0.4,17.72,South,187,7.6,10.1,2,0.00,,---,0.00,VWS V13.01,2013-06-03 21:39:00,
2013-06-03 14:44:00,105.4,0.4,17.72,West,272,5.4,9.2,2,0.00,,---,0.00,VWS V13.01,2013-06-03 21:44:00,
2013-06-03 14:49:00,103.8,-0.6,17.72,West,277,8.3,9.6,2,0.00,,---,0.00,VWS V13.01,2013-06-03 21:49:00,
2013-06-03 14:54:00,103.5,-0.9,17.72,West,265,7.6,8.1,2,0.00,,---,0.00,VWS V13.01,2013-06-03 21:54:00,
2013-06-03 15:00:00,103.1,-1.1,17.72,SSW,207,5.8,12.3,2,0.00,,---,0.00,VWS V13.01,2013-06-03 22:00:00,
2013-06-03 15:05:00,104.0,-0.5,17.72,SW,235,5.8,10.1,2,0.00,,---,0.00,VWS V13.01,2013-06-03 22:05:00,
2013-06-03 15:10:00,104.0,-0.5,17.72,WNW,284,4.0,7.6,2,0.00,,---,0.00,VWS V13.01,2013-06-03 22:10:00,
2013-06-03 15:15:00,103.6,-0.8,17.72,WSW,247,5.8,13.2,2,0.00,,---,0.00,VWS V13.01,2013-06-03 22:15:00,
2013-06-03 15:20:00,103.8,-0.6,17.72,South,183,8.3,11.9,2,0.00,,---,0.00,VWS V13.01,2013-06-03 22:20:00,
2013-06-03 15:25:00,104.2,-0.4,17.72,South,172,7.6,12.3,2,0.00,,---,0.00,VWS V13.01,2013-06-03 22:25:00,
2013-06-03 15:31:00,103.8,-0.6,17.72,SSW,195,3.1,10.5,2,0.00,,---,0.00,VWS V13.01,2013-06-03 22:31:00,
2013-06-03 15:36:00,104.4,-0.3,17.72,SW,222,8.7,10.5,2,0.00,,---,0.00,VWS V13.01,2013-06-03 22:36:00,
2013-06-03 15:41:00,104.2,-0.4,17.72,WNW,282,8.7,8.7,2,0.00,,---,0.00,VWS V13.01,2013-06-03 22:41:00,
2013-06-03 15:47:00,104.4,-0.3,17.72,SSW,193,10.5,10.5,2,0.00,,---,0.00,VWS V13.01,2013-06-03 22:47:00,
2013-06-03 15:52:00,103.8,-0.6,17.72,SW,214,6.3,15.0,2,0.00,,---,0.00,VWS V13.01,2013-06-03 22:52:00,
2013-06-03 15:58:00,103.3,-1.0,17.72,SW,233,6.3,12.3,2,0.00,,---,0.00,VWS V13.01,2013-06-03 22:58:00,
2013-06-03 16:03:00,103.5,-0.9,17.72,South,180,3.6,8.1,2,0.00,,---,0.00,VWS V13.01,2013-06-03 23:03:00,
2013-06-03 16:08:00,102.9,-1.2,17.72,SW,229,6.3,8.7,2,0.00,,---,0.00,VWS V13.01,2013-06-03 23:08:00,
2013-06-03 16:13:00,102.6,-1.5,17.72,WSW,242,4.0,11.9,2,0.00,,---,0.00,VWS V13.01,2013-06-03 23:13:00,
2013-06-03 16:18:00,102.6,-1.5,17.72,West,278,8.1,9.6,2,0.00,,---,0.00,VWS V13.01,2013-06-03 23:18:00,
2013-06-03 16:24:00,102.0,-1.8,17.72,WNW,303,5.8,10.1,2,0.00,,---,0.00,VWS V13.01,2013-06-03 23:24:00,
2013-06-03 16:29:00,102.4,-1.6,17.72,SW,220,12.8,12.8,2,0.00,,---,0.00,VWS V13.01,2013-06-03 23:29:00,
2013-06-03 16:34:00,101.8,-1.9,17.72,West,266,7.6,12.8,2,0.00,,---,0.00,VWS V13.01,2013-06-03 23:34:00,
2013-06-03 16:39:00,102.2,-1.7,17.72,SSW,212,8.1,8.1,2,0.00,,---,0.00,VWS V13.01,2013-06-03 23:39:00,
2013-06-03 16:44:00,102.0,-1.8,17.72,SW,231,5.4,7.2,2,0.00,,---,0.00,VWS V13.01,2013-06-03 23:44:00,
2013-06-03 16:50:00,102.2,-1.7,17.72,SSW,213,5.8,5.8,2,0.00,,---,0.00,VWS V13.01,2013-06-03 23:50:00,
2013-06-03 16:55:00,102.6,-1.5,17.72,SSW,199,6.7,11.4,2,0.00,,---,0.00,VWS V13.01,2013-06-03 23:55:00,
2013-06-03 17:00:00,101.7,-2.0,17.72,WSW,243,5.4,10.5,2,0.00,,---,0.00,VWS V13.01,2013-06-04 00:00:00,
2013-06-03 17:07:00,101.3,-2.2,17.72,WSW,239,3.6,8.3,2,0.00,,---,0.00,VWS V13.01,2013-06-04 00:07:00,
2013-06-03 17:12:00,101.3,-2.2,17.72,WSW,241,3.1,8.7,2,0.00,,---,0.00,VWS V13.01,2013-06-04 00:12:00,
2013-06-03 17:17:00,101.7,-2.0,17.72,SSW,193,10.1,12.8,2,0.00,,---,0.00,VWS V13.01,2013-06-04 00:17:00,
2013-06-03 17:22:00,101.5,-2.1,17.72,SSW,201,0.0,8.1,2,0.00,,---,0.00,VWS V13.01,2013-06-04 00:22:00,
2013-06-03 17:28:00,101.7,-2.0,17.72,South,182,0.0,4.0,2,0.00,,---,0.00,VWS V13.01,2013-06-04 00:28:00,
2013-06-03 17:33:00,101.5,-2.1,17.72,SW,216,2.7,6.3,2,0.00,,---,0.00,VWS V13.01,2013-06-04 00:33:00,
2013-06-03 17:38:00,101.5,-2.1,17.72,SW,219,0.0,5.8,2,0.00,,---,0.00,VWS V13.01,2013-06-04 00:38:00,
2013-06-03 17:43:00,101.3,-2.2,17.72,SW,234,3.6,5.8,2,0.00,,---,0.00,VWS V13.01,2013-06-04 00:43:00,
2013-06-03 17:49:00,100.8,-2.6,17.72,SSW,207,5.4,5.8,2,0.00,,---,0.00,VWS V13.01,2013-06-04 00:49:00,
2013-06-03 17:54:00,100.9,-2.5,17.72,South,176,4.0,8.3,2,0.00,,---,0.00,VWS V13.01,2013-06-04 00:54:00,
2013-06-03 17:59:00,100.8,-2.6,17.72,SSW,198,3.1,5.4,2,0.00,,---,0.00,VWS V13.01,2013-06-04 00:59:00,
2013-06-03 18:04:00,100.4,-2.8,17.72,WSW,245,7.2,7.2,2,0.00,,---,0.00,VWS V13.01,2013-06-04 01:04:00,
2013-06-03 18:09:00,100.4,-2.8,17.72,SSW,199,5.4,6.3,2,0.00,,---,0.00,VWS V13.01,2013-06-04 01:09:00,
2013-06-03 18:14:00,100.2,-2.9,17.72,SSW,197,5.4,7.6,2,0.00,,---,0.00,VWS V13.01,2013-06-04 01:14:00,
2013-06-03 18:20:00,99.7,-3.3,17.72,SSW,209,4.9,8.3,2,0.00,,---,0.00,VWS V13.01,2013-06-04 01:20:00,
2013-06-03 18:25:00,99.3,-3.5,17.72,West,274,8.1,8.1,2,0.00,,---,0.00,VWS V13.01,2013-06-04 01:25:00,
2013-06-03 18:30:00,98.8,-3.8,17.72,SW,236,4.0,4.9,2,0.00,,---,0.00,VWS V13.01,2013-06-04 01:30:00,
2013-06-03 18:35:00,98.4,-4.1,17.72,SSW,205,0.0,5.8,2,0.00,,---,0.00,VWS V13.01,2013-06-04 01:35:00,
2013-06-03 18:41:00,98.2,-4.2,17.72,SW,221,0.0,0.0,2,0.00,,---,0.00,VWS V13.01,2013-06-04 01:41:00,
2013-06-03 18:46:00,97.9,-4.4,17.72,SW,220,2.7,4.9,2,0.00,,---,0.00,VWS V13.01,2013-06-04 01:46:00,
2013-06-03 18:51:00,97.5,-4.6,17.72,SSW,203,0.0,3.6,2,0.00,,---,0.00,VWS V13.01,2013-06-04 01:51:00,
2013-06-03 18:57:00,97.0,-5.0,17.72,West,267,5.4,5.4,2,0.00,,---,0.00,VWS V13.01,2013-06-04 01:57:00,
2013-06-03 19:02:00,96.4,-5.3,17.72,SW,236,0.0,3.1,2,0.00,,---,0.00,VWS V13.01,2013-06-04 02:02:00,
2013-06-03 19:07:00,96.1,-5.5,17.72,WSW,247,4.0,5.8,2,0.00,,---,0.00,VWS V13.01,2013-06-04 02:07:00,
2013-06-03 19:12:00,95.5,-5.9,17.72,WSW,251,0.0,0.0,2,0.00,,---,0.00,VWS V13.01,2013-06-04 02:12:00,
2013-06-03 19:17:00,95.0,-6.2,17.72,West,275,0.0,0.0,2,0.00,,---,0.00,VWS V13.01,2013-06-04 02:17:00,
2013-06-03 19:22:00,94.6,-6.4,17.72,West,267,5.8,5.8,2,0.00,,---,0.00,VWS V13.01,2013-06-04 02:22:00,
2013-06-03 19:27:00,94.3,-6.7,17.72,WSW,245,3.6,4.9,2,0.00,,---,0.00,VWS V13.01,2013-06-04 02:27:00,
2013-06-03 19:32:00,93.7,-7.0,17.72,WSW,242,0.0,5.8,2,0.00,,---,0.00,VWS V13.01,2013-06-04 02:32:00,
2013-06-03 19:38:00,93.4,-7.2,17.72,WSW,258,3.1,5.4,2,0.00,,---,0.00,VWS V13.01,2013-06-04 02:38:00,
2013-06-03 19:43:00,93.0,-7.5,17.72,West,259,2.7,4.0,2,0.00,,---,0.00,VWS V13.01,2013-06-04 02:43:00,
2013-06-03 19:48:00,92.5,-7.8,17.72,WSW,249,2.7,5.4,2,0.00,,---,0.00,VWS V13.01,2013-06-04 02:48:00,
2013-06-03 19:54:00,92.3,-7.9,17.72,WSW,257,3.6,5.4,2,0.00,,---,0.00,VWS V13.01,2013-06-04 02:54:00,
2013-06-03 19:59:00,91.9,-8.2,17.72,WSW,256,0.0,0.0,2,0.00,,---,0.00,VWS V13.01,2013-06-04 02:59:00,
2013-06-03 20:04:00,91.6,-8.4,17.72,WSW,256,0.0,0.0,2,0.00,,---,0.00,VWS V13.01,2013-06-04 03:04:00,
2013-06-03 20:10:00,91.2,-8.6,17.72,WSW,256,0.0,0.0,2,0.00,,---,0.00,VWS V13.01,2013-06-04 03:10:00,
2013-06-03 20:15:00,91.0,-8.7,17.72,WSW,256,0.0,0.0,2,0.00,,---,0.00,VWS V13.01,2013-06-04 03:15:00,
2013-06-03 20:20:00,90.5,-9.1,17.72,WSW,256,0.0,0.0,2,0.00,,---,0.00,VWS V13.01,2013-06-04 03:20:00,
2013-06-03 20:26:00,90.0,-9.4,17.72,WSW,256,0.0,0.0,2,0.00,,---,0.00,VWS V13.01,2013-06-04 03:26:00,
2013-06-03 20:31:00,89.4,-9.8,17.72,WSW,256,0.0,0.0,2,0.00,,---,0.00,VWS V13.01,2013-06-04 03:31:00,
2013-06-03 20:36:00,89.2,-9.9,17.72,WSW,256,0.0,0.0,2,0.00,,---,0.00,VWS V13.01,2013-06-04 03:36:00,
2013-06-03 20:42:00,88.7,-10.2,17.72,WSW,256,0.0,0.0,2,0.00,,---,0.00,VWS V13.01,2013-06-04 03:42:00,
2013-06-03 20:47:00,88.3,-10.5,17.72,WSW,256,0.0,0.0,2,0.00,,---,0.00,VWS V13.01,2013-06-04 03:47:00,
2013-06-03 20:52:00,88.2,-10.6,17.72,WSW,254,0.0,0.0,2,0.00,,---,0.00,VWS V13.01,2013-06-04 03:52:00,
2013-06-03 20:57:00,88.2,-10.6,17.72,SSW,211,0.0,4.5,2,0.00,,---,0.00,VWS V13.01,2013-06-04 03:57:00,
2013-06-03 21:01:00,88.0,-10.7,17.72,SW,227,0.0,3.6,2,0.00,,---,0.00,VWS V13.01,2013-06-04 04:01:00,
2013-06-03 21:02:00,88.0,-10.7,17.72,SW,227,0.0,3.6,2,0.00,,---,0.00,VWS V13.01,2013-06-04 04:02:00,
2013-06-03 21:03:00,88.0,-10.7,17.72,SW,227,0.0,0.0,2,0.00,,---,0.00,VWS V13.01,2013-06-04 04:03:00,
2013-06-03 21:06:00,87.8,-10.8,17.72,SW,227,0.0,0.0,2,0.00,,---,0.00,VWS V13.01,2013-06-04 04:06:00,
2013-06-03 21:12:00,87.6,-10.9,17.72,SW,227,0.0,0.0,2,0.00,,---,0.00,VWS V13.01,2013-06-04 04:12:00,
2013-06-03 21:17:00,87.3,-11.1,17.72,SW,227,0.0,0.0,2,0.00,,---,0.00,VWS V13.01,2013-06-04 04:17:00,
2013-06-03 21:23:00,87.1,-11.3,17.72,SW,227,0.0,0.0,2,0.00,,---,0.00,VWS V13.01,2013-06-04 04:23:00,
2013-06-03 21:28:00,86.7,-11.5,17.72,SW,227,0.0,0.0,2,0.00,,---,0.00,VWS V13.01,2013-06-04 04:28:00,
2013-06-03 21:33:00,86.4,-11.7,17.72,SW,227,0.0,0.0,2,0.00,,---,0.00,VWS V13.01,2013-06-04 04:33:00,
2013-06-03 21:38:00,85.8,-12.1,17.72,SW,227,0.0,0.0,2,0.00,,---,0.00,VWS V13.01,2013-06-04 04:38:00,
2013-06-03 21:43:00,85.5,-12.3,17.72,SW,227,0.0,0.0,2,0.00,,---,0.00,VWS V13.01,2013-06-04 04:43:00,
2013-06-03 21:49:00,85.1,-12.5,17.72,SW,227,0.0,0.0,2,0.00,,---,0.00,VWS V13.01,2013-06-04 04:49:00,
2013-06-03 21:54:00,84.9,-12.6,17.72,SW,227,0.0,0.0,2,0.00,,---,0.00,VWS V13.01,2013-06-04 04:54:00,
2013-06-03 21:59:00,84.9,-12.6,17.72,SW,227,0.0,0.0,2,0.00,,---,0.00,VWS V13.01,2013-06-04 04:59:00,
2013-06-03 22:05:00,84.7,-12.8,17.72,SW,227,0.0,0.0,2,0.00,,---,0.00,VWS V13.01,2013-06-04 05:05:00,
2013-06-03 22:10:00,84.2,-13.1,17.72,SW,227,0.0,0.0,2,0.00,,---,0.00,VWS V13.01,2013-06-04 05:10:00,
2013-06-03 22:15:00,83.8,-13.3,17.72,SW,227,0.0,0.0,2,0.00,,---,0.00,VWS V13.01,2013-06-04 05:15:00,
2013-06-03 22:20:00,83.1,-13.8,17.72,SW,227,0.0,0.0,2,0.00,,---,0.00,VWS V13.01,2013-06-04 05:20:00,
2013-06-03 22:26:00,82.8,-14.0,17.72,SW,227,0.0,0.0,2,0.00,,---,0.00,VWS V13.01,2013-06-04 05:26:00,
2013-06-03 22:31:00,82.6,-14.1,17.72,SW,227,0.0,0.0,2,0.00,,---,0.00,VWS V13.01,2013-06-04 05:31:00,
2013-06-03 22:36:00,82.4,-14.2,17.72,SW,227,0.0,0.0,2,0.00,,---,0.00,VWS V13.01,2013-06-04 05:36:00,
2013-06-03 22:41:00,82.2,-14.4,17.72,SW,227,0.0,0.0,2,0.00,,---,0.00,VWS V13.01,2013-06-04 05:41:00,
2013-06-03 22:46:00,81.9,-14.6,17.72,SW,227,0.0,0.0,2,0.00,,---,0.00,VWS V13.01,2013-06-04 05:46:00,
2013-06-03 22:51:00,81.7,-14.7,17.72,SW,227,0.0,0.0,2,0.00,,---,0.00,VWS V13.01,2013-06-04 05:51:00,
2013-06-03 22:56:00,81.5,-14.8,17.72,SW,227,0.0,0.0,2,0.00,,---,0.00,VWS V13.01,2013-06-04 05:56:00,
2013-06-03 23:02:00,81.1,-15.1,17.72,SW,227,0.0,0.0,2,0.00,,---,0.00,VWS V13.01,2013-06-04 06:02:00,
2013-06-03 23:07:00,80.8,-15.3,17.72,SW,227,0.0,0.0,2,0.00,,---,0.00,VWS V13.01,2013-06-04 06:07:00,
2013-06-03 23:12:00,80.4,-15.5,17.72,SW,227,0.0,0.0,2,0.00,,---,0.00,VWS V13.01,2013-06-04 06:12:00,
2013-06-03 23:17:00,80.2,-15.6,17.72,SW,214,0.0,0.0,2,0.00,,---,0.00,VWS V13.01,2013-06-04 06:17:00,
2013-06-03 23:22:00,80.1,-15.8,17.72,SW,214,0.0,0.0,2,0.00,,---,0.00,VWS V13.01,2013-06-04 06:22:00,
2013-06-03 23:28:00,80.1,-15.8,17.72,SW,214,0.0,0.0,2,0.00,,---,0.00,VWS V13.01,2013-06-04 06:28:00,
2013-06-03 23:33:00,79.9,-15.9,17.72,SSW,213,0.0,0.0,2,0.00,,---,0.00,VWS V13.01,2013-06-04 06:33:00,
2013-06-03 23:38:00,79.5,-16.1,17.72,SSW,213,0.0,0.0,2,0.00,,---,0.00,VWS V13.01,2013-06-04 06:38:00,
2013-06-03 23:44:00,79.3,-16.2,17.72,SSW,213,0.0,0.0,2,0.00,,---,0.00,VWS V13.01,2013-06-04 06:44:00,
2013-06-03 23:49:00,79.0,-16.5,17.72,SSW,213,0.0,0.0,2,0.00,,---,0.00,VWS V13.01,2013-06-04 06:49:00,
2013-06-03 23:54:00,78.4,-16.8,17.72,SSW,213,0.0,0.0,2,0.00,,---,0.00,VWS V13.01,2013-06-04 06:54:00,